createdAt,value
2018-03-24T00:00:06.729Z,95.70
2018-03-24T00:02:34.246Z,96.00
2018-03-24T00:05:01.804Z,96.10
2018-03-24T00:07:29.290Z,94.40
2018-03-24T00:09:56.811Z,96.20
2018-03-24T00:12:24.346Z,96.80
2018-03-24T00:14:52.815Z,97.20
2018-03-24T00:17:21.296Z,96.00
2018-03-24T00:19:49.801Z,96.60
2018-03-24T00:22:19.716Z,96.60
2018-03-24T00:24:47.310Z,97.10
2018-03-24T00:27:15.571Z,97.90
2018-03-24T00:29:43.114Z,97.90
2018-03-24T00:32:12.616Z,98.20
2018-03-24T00:34:40.164Z,98.90
2018-03-24T00:37:07.709Z,97.90
2018-03-24T00:39:35.267Z,98.70
2018-03-24T00:42:03.727Z,98.30
2018-03-24T00:44:32.141Z,99.00
2018-03-24T00:46:59.668Z,99.10
2018-03-24T00:49:27.193Z,98.80
2018-03-24T00:51:55.444Z,98.80
2018-03-24T00:54:22.934Z,99.30
2018-03-24T00:56:51.416Z,99.20
2018-03-24T00:59:18.913Z,99.20
2018-03-24T01:01:47.374Z,98.60
2018-03-24T01:04:14.926Z,97.90
2018-03-24T01:06:42.452Z,97.90
2018-03-24T01:09:10.722Z,96.20
2018-03-24T01:11:38.222Z,96.20
2018-03-24T01:14:05.742Z,97.00
2018-03-24T01:16:52.948Z,96.30
2018-03-24T01:22:02.519Z,94.90
2018-03-24T01:24:30.148Z,93.60
2018-03-24T01:26:57.731Z,95.80
2018-03-24T01:29:25.230Z,95.60
2018-03-24T01:31:53.686Z,95.10
2018-03-24T01:34:21.274Z,94.50
2018-03-24T01:36:48.820Z,94.30
2018-03-24T01:39:16.337Z,94.40
2018-03-24T01:41:43.945Z,94.00
2018-03-24T01:44:11.431Z,93.50
2018-03-24T01:46:39.755Z,94.30
2018-03-24T01:49:07.250Z,94.30
2018-03-24T01:51:34.750Z,94.30
2018-03-24T01:54:03.044Z,94.70
2018-03-24T01:56:30.656Z,94.70
2018-03-24T01:58:58.200Z,95.30
2018-03-24T02:01:25.776Z,94.60
2018-03-24T02:03:53.341Z,94.80
2018-03-24T02:06:20.835Z,94.90
2018-03-24T02:08:49.175Z,95.50
2018-03-24T02:11:16.690Z,95.30
2018-03-24T02:13:44.224Z,94.60
2018-03-24T02:16:13.686Z,94.60
2018-03-24T02:18:41.234Z,94.60
2018-03-24T02:21:08.778Z,95.20
2018-03-24T02:23:38.197Z,95.40
2018-03-24T02:26:07.439Z,94.80
2018-03-24T02:28:34.949Z,94.90
2018-03-24T02:31:03.400Z,94.80
2018-03-24T02:33:30.919Z,95.00
2018-03-24T02:35:58.463Z,94.40
2018-03-24T02:38:27.125Z,94.40
2018-03-24T02:40:56.587Z,95.00
2018-03-24T02:43:24.843Z,95.10
2018-03-24T02:45:52.387Z,95.10
2018-03-24T02:48:19.939Z,95.40
2018-03-24T02:50:48.340Z,95.70
2018-03-24T02:53:15.961Z,95.70
2018-03-24T02:55:43.578Z,96.20
2018-03-24T02:58:11.076Z,96.60
2018-03-24T03:00:38.594Z,96.90
2018-03-24T03:03:06.132Z,98.00
2018-03-24T03:05:33.719Z,98.00
2018-03-24T03:08:01.231Z,99.10
2018-03-24T03:10:28.761Z,99.60
2018-03-24T03:12:56.269Z,99.50
2018-03-24T03:15:23.855Z,98.40
2018-03-24T03:17:51.438Z,97.60
2018-03-24T03:20:19.008Z,99.40
2018-03-24T03:22:46.623Z,97.30
2018-03-24T03:25:14.165Z,99.00
2018-03-24T03:27:44.419Z,98.20
2018-03-24T03:30:17.671Z,98.20
2018-03-24T03:32:45.224Z,99.90
2018-03-24T03:35:12.796Z,99.00
2018-03-24T03:37:40.370Z,98.70
2018-03-24T03:40:08.868Z,98.70
2018-03-24T03:42:37.402Z,97.80
2018-03-24T03:45:04.929Z,98.10
2018-03-24T03:47:34.341Z,98.00
2018-03-24T03:50:01.920Z,98.10
2018-03-24T03:52:30.412Z,98.00
2018-03-24T03:54:58.898Z,97.50
2018-03-24T03:57:26.440Z,98.10
2018-03-24T03:59:53.944Z,97.20
2018-03-24T04:02:21.550Z,97.80
2018-03-24T04:04:49.916Z,97.70
2018-03-24T04:07:17.475Z,97.70
2018-03-24T04:09:44.985Z,98.60
2018-03-24T04:12:12.539Z,97.80
2018-03-24T04:14:41.942Z,97.20
2018-03-24T04:17:10.250Z,96.60
2018-03-24T04:19:37.744Z,96.60
2018-03-24T04:22:05.276Z,96.40
2018-03-24T04:24:32.887Z,97.20
2018-03-24T04:27:00.457Z,97.00
2018-03-24T04:29:28.003Z,97.80
2018-03-24T04:31:55.575Z,97.80
2018-03-24T04:34:23.114Z,97.70
2018-03-24T04:36:51.213Z,98.00
2018-03-24T04:39:18.732Z,98.20
2018-03-24T04:41:48.317Z,98.60
2018-03-24T04:44:16.624Z,99.30
2018-03-24T04:46:44.168Z,99.30
2018-03-24T04:49:11.697Z,99.60
2018-03-24T04:51:40.114Z,99.90
2018-03-24T04:54:08.446Z,99.90
2018-03-24T04:56:36.094Z,99.90
2018-03-24T04:59:03.595Z,99.90
2018-03-24T05:01:32.037Z,99.90
2018-03-24T05:03:59.591Z,99.80
2018-03-24T05:06:27.206Z,99.70
2018-03-24T05:08:54.760Z,99.80
2018-03-24T05:11:23.731Z,99.90
2018-03-24T05:13:51.303Z,99.80
2018-03-24T05:16:18.891Z,99.80
2018-03-24T05:18:46.995Z,99.60
2018-03-24T05:21:16.707Z,99.90
2018-03-24T05:23:44.260Z,99.90
2018-03-24T05:26:11.904Z,99.90
2018-03-24T05:31:39.145Z,99.70
2018-03-24T05:34:06.694Z,99.50
2018-03-24T05:36:34.352Z,99.20
2018-03-24T05:39:04.657Z,99.20
2018-03-24T05:41:34.101Z,99.20
2018-03-24T05:44:02.604Z,98.80
2018-03-24T05:46:30.104Z,99.10
2018-03-24T05:48:57.688Z,99.10
2018-03-24T05:51:26.209Z,99.90
2018-03-24T05:53:53.749Z,98.20
2018-03-24T05:56:22.045Z,97.10
2018-03-24T05:58:49.675Z,97.10
2018-03-24T06:01:17.262Z,96.90
2018-03-24T06:03:44.822Z,98.90
2018-03-24T06:06:13.163Z,97.00
2018-03-24T06:08:42.694Z,96.90
2018-03-24T06:11:10.273Z,96.40
2018-03-24T06:13:37.888Z,95.70
2018-03-24T06:16:05.474Z,96.20
2018-03-24T06:18:33.039Z,95.70
2018-03-24T06:21:00.613Z,96.10
2018-03-24T06:23:29.539Z,95.70
2018-03-24T06:25:57.872Z,94.40
2018-03-24T06:28:25.404Z,94.40
2018-03-24T06:30:53.929Z,94.30
2018-03-24T06:33:21.432Z,94.70
2018-03-24T06:35:49.728Z,94.80
2018-03-24T06:38:18.185Z,94.80
2018-03-24T06:40:45.689Z,95.40
2018-03-24T06:43:13.292Z,95.70
2018-03-24T06:45:42.751Z,96.00
2018-03-24T06:48:11.025Z,96.00
2018-03-24T06:50:38.578Z,96.00
2018-03-24T06:53:07.014Z,95.90
2018-03-24T06:55:34.510Z,95.60
2018-03-24T06:58:02.054Z,95.60
2018-03-24T07:00:29.589Z,95.30
2018-03-24T07:02:57.189Z,95.70
2018-03-24T07:05:24.725Z,95.50
2018-03-24T07:07:52.266Z,95.30
2018-03-24T07:10:21.464Z,95.30
2018-03-24T07:12:49.754Z,96.00
2018-03-24T07:15:17.237Z,96.00
2018-03-24T07:17:44.868Z,95.50
2018-03-24T07:20:12.409Z,95.10
2018-03-24T07:22:39.975Z,95.10
2018-03-24T07:25:07.599Z,94.90
2018-03-24T07:27:36.061Z,94.20
2018-03-24T07:30:03.620Z,93.60
2018-03-24T07:32:31.968Z,93.10
2018-03-24T07:34:59.576Z,93.10
2018-03-24T07:37:27.095Z,92.50
2018-03-24T07:39:54.849Z,92.00
2018-03-24T07:42:22.392Z,92.20
2018-03-24T07:44:49.877Z,91.90
2018-03-24T07:47:17.399Z,91.40
2018-03-24T07:49:44.877Z,91.30
2018-03-24T07:52:12.468Z,90.90
2018-03-24T07:54:40.098Z,91.00
2018-03-24T07:57:07.668Z,91.80
2018-03-24T07:59:35.238Z,90.80
2018-03-24T08:02:03.724Z,87.10
2018-03-24T08:04:33.125Z,90.10
2018-03-24T08:07:00.644Z,89.70
2018-03-24T08:09:28.216Z,89.40
2018-03-24T08:11:57.426Z,90.00
2018-03-24T08:14:25.779Z,87.60
2018-03-24T08:16:53.415Z,87.60
2018-03-24T08:19:21.836Z,88.10
2018-03-24T08:21:49.451Z,88.50
2018-03-24T08:24:16.987Z,87.60
2018-03-24T08:26:45.263Z,87.80
2018-03-24T08:29:13.566Z,86.30
2018-03-24T08:34:41.910Z,85.10
2018-03-24T08:37:09.422Z,87.70
2018-03-24T08:39:37.846Z,85.00
2018-03-24T08:42:05.365Z,86.50
2018-03-24T08:44:32.939Z,84.60
2018-03-24T08:47:01.287Z,84.50
2018-03-24T08:49:29.599Z,86.40
2018-03-24T08:51:57.086Z,86.50
2018-03-24T08:54:24.607Z,84.80
2018-03-24T08:56:52.867Z,85.10
2018-03-24T08:59:20.484Z,85.00
2018-03-24T09:01:48.047Z,85.80
2018-03-24T09:04:15.551Z,83.70
2018-03-24T09:06:43.093Z,86.10
2018-03-24T09:09:12.547Z,85.00
2018-03-24T09:11:40.122Z,85.80
2018-03-24T09:14:08.386Z,85.40
2018-03-24T09:16:35.968Z,85.40
2018-03-24T09:19:04.280Z,82.90
2018-03-24T09:21:33.745Z,82.80
2018-03-24T09:24:01.240Z,82.90
2018-03-24T09:26:29.677Z,83.00
2018-03-24T09:28:57.207Z,81.40
2018-03-24T09:31:24.856Z,81.70
2018-03-24T09:33:52.446Z,80.50
2018-03-24T09:36:20.882Z,79.70
2018-03-24T09:38:50.063Z,80.10
2018-03-24T09:41:18.518Z,80.10
2018-03-24T09:43:46.102Z,79.40
2018-03-24T09:46:14.519Z,80.10
2018-03-24T09:48:42.809Z,77.30
2018-03-24T09:51:11.064Z,79.50
2018-03-24T09:53:38.591Z,79.50
2018-03-24T09:56:06.110Z,78.60
2018-03-24T09:58:35.286Z,75.50
2018-03-24T10:01:02.859Z,75.60
2018-03-24T10:03:30.395Z,75.60
2018-03-24T10:05:58.631Z,78.60
2018-03-24T10:08:27.058Z,73.10
2018-03-24T10:10:55.549Z,75.30
2018-03-24T10:13:23.056Z,75.30
2018-03-24T10:15:51.342Z,72.20
2018-03-24T10:18:18.913Z,72.10
2018-03-24T10:24:25.272Z,75.50
2018-03-24T10:26:52.783Z,73.40
2018-03-24T10:29:21.115Z,70.80
2018-03-24T10:31:49.777Z,70.80
2018-03-24T10:34:17.481Z,71.60
2018-03-24T10:36:44.981Z,71.20
2018-03-24T10:39:12.566Z,70.60
2018-03-24T10:41:40.087Z,70.60
2018-03-24T10:44:07.690Z,69.80
2018-03-24T10:46:35.210Z,71.40
2018-03-24T10:49:02.711Z,69.90
2018-03-24T10:51:31.175Z,71.40
2018-03-24T10:53:59.687Z,71.20
2018-03-24T10:56:27.203Z,68.80
2018-03-24T10:58:54.691Z,68.10
2018-03-24T11:01:25.804Z,67.30
2018-03-24T11:03:53.369Z,68.60
2018-03-24T11:06:20.863Z,67.60
2018-03-24T11:08:48.382Z,64.90
2018-03-24T11:11:16.865Z,65.70
2018-03-24T11:13:46.189Z,63.90
2018-03-24T11:16:14.691Z,65.50
2018-03-24T11:18:42.250Z,66.60
2018-03-24T11:21:11.788Z,64.30
2018-03-24T11:23:39.337Z,66.70
2018-03-24T11:26:07.849Z,65.10
2018-03-24T11:28:36.847Z,67.00
2018-03-24T11:31:06.325Z,66.70
2018-03-24T11:33:33.873Z,71.80
2018-03-24T11:36:01.368Z,65.60
2018-03-24T11:38:29.912Z,69.50
2018-03-24T11:40:57.424Z,70.60
2018-03-24T11:43:26.582Z,70.30
2018-03-24T11:45:54.698Z,68.80
2018-03-24T11:48:22.229Z,69.50
2018-03-24T11:50:49.727Z,70.80
2018-03-24T11:53:17.264Z,70.30
2018-03-24T11:55:44.775Z,70.40
2018-03-24T11:58:12.295Z,68.50
2018-03-24T12:00:39.851Z,70.40
2018-03-24T12:03:08.355Z,70.80
2018-03-24T12:05:35.912Z,69.40
2018-03-24T12:08:03.434Z,68.30
2018-03-24T12:10:31.724Z,68.50
2018-03-24T12:12:59.247Z,68.60
2018-03-24T12:15:26.785Z,68.90
2018-03-24T12:17:54.328Z,68.20
2018-03-24T12:20:21.852Z,69.40
2018-03-24T12:22:50.325Z,67.40
2018-03-24T12:25:18.890Z,65.10
2018-03-24T12:27:46.452Z,65.90
2018-03-24T12:30:13.963Z,64.70
2018-03-24T12:32:42.228Z,65.50
2018-03-24T12:35:09.869Z,65.50
2018-03-24T12:37:38.359Z,66.90
2018-03-24T12:40:05.916Z,63.80
2018-03-24T12:42:53.184Z,63.30
2018-03-24T12:45:21.469Z,65.30
2018-03-24T12:50:55.889Z,63.40
2018-03-24T12:53:24.196Z,62.10
2018-03-24T12:55:52.637Z,61.90
2018-03-24T12:58:20.180Z,63.40
2018-03-24T13:00:47.761Z,62.90
2018-03-24T13:03:15.327Z,63.50
2018-03-24T13:05:42.827Z,62.00
2018-03-24T13:08:10.398Z,60.70
2018-03-24T13:10:37.970Z,63.60
2018-03-24T13:13:05.508Z,64.60
2018-03-24T13:15:33.807Z,62.80
2018-03-24T13:18:01.324Z,62.90
2018-03-24T13:20:28.863Z,62.50
2018-03-24T13:22:56.389Z,64.70
2018-03-24T13:25:23.887Z,63.60
2018-03-24T13:27:52.378Z,60.90
2018-03-24T13:30:20.907Z,61.80
2018-03-24T13:32:49.268Z,62.90
2018-03-24T13:35:16.846Z,62.80
2018-03-24T13:37:44.475Z,60.90
2018-03-24T13:40:12.001Z,62.80
2018-03-24T13:42:40.309Z,63.30
2018-03-24T13:45:07.847Z,63.40
2018-03-24T13:47:38.018Z,60.90
2018-03-24T13:50:06.191Z,61.00
2018-03-24T13:52:34.647Z,63.80
2018-03-24T13:55:02.188Z,60.10
2018-03-24T13:57:29.722Z,58.10
2018-03-24T13:59:57.249Z,61.60
2018-03-24T14:02:25.702Z,60.30
2018-03-24T14:04:53.996Z,58.00
2018-03-24T14:07:23.327Z,57.90
2018-03-24T14:09:50.934Z,58.20
2018-03-24T14:12:18.423Z,61.10
2018-03-24T14:14:47.697Z,57.70
2018-03-24T14:17:16.110Z,57.60
2018-03-24T14:19:45.323Z,56.20
2018-03-24T14:22:12.865Z,56.20
2018-03-24T14:24:41.293Z,57.50
2018-03-24T14:27:10.744Z,56.40
2018-03-24T14:29:38.285Z,56.80
2018-03-24T14:32:06.734Z,56.30
2018-03-24T14:34:34.276Z,60.20
2018-03-24T14:37:04.260Z,59.40
2018-03-24T14:39:31.875Z,59.60
2018-03-24T14:41:59.356Z,60.60
2018-03-24T14:44:27.793Z,57.90
2018-03-24T14:46:55.378Z,56.50
2018-03-24T14:49:22.957Z,57.70
2018-03-24T14:51:51.408Z,57.40
2018-03-24T14:54:18.943Z,58.30
2018-03-24T14:57:07.187Z,58.30
2018-03-24T15:02:14.000Z,62.10
2018-03-24T15:04:42.515Z,58.50
2018-03-24T15:07:10.035Z,59.00
2018-03-24T15:09:37.545Z,57.80
2018-03-24T15:12:06.112Z,59.50
2018-03-24T15:14:34.412Z,59.00
2018-03-24T15:17:02.699Z,59.50
2018-03-24T15:19:30.242Z,60.50
2018-03-24T15:21:57.854Z,59.90
2018-03-24T15:24:25.414Z,57.80
2018-03-24T15:26:53.019Z,57.70
2018-03-24T15:29:32.466Z,57.20
2018-03-24T15:32:11.687Z,59.20
2018-03-24T15:34:50.944Z,60.20
2018-03-24T15:37:20.468Z,59.50
2018-03-24T15:39:48.074Z,58.00
2018-03-24T15:42:17.627Z,58.10
2018-03-24T15:45:04.569Z,59.40
2018-03-24T15:47:32.113Z,59.40
2018-03-24T15:50:02.377Z,56.20
2018-03-24T15:55:09.810Z,58.70
2018-03-24T15:57:38.348Z,58.70
2018-03-24T16:00:05.900Z,57.40
2018-03-24T16:02:34.197Z,55.20
2018-03-24T16:05:01.750Z,55.20
2018-03-24T16:07:29.316Z,56.40
2018-03-24T16:09:57.834Z,54.40
2018-03-24T16:12:25.368Z,55.70
2018-03-24T16:14:52.944Z,57.00
2018-03-24T16:17:20.476Z,55.60
2018-03-24T16:19:50.687Z,57.80
2018-03-24T16:22:18.270Z,57.90
2018-03-24T16:24:48.490Z,56.80
2018-03-24T16:27:16.787Z,56.10
2018-03-24T16:29:44.334Z,56.10
2018-03-24T16:32:13.522Z,56.00
2018-03-24T16:34:41.182Z,55.90
2018-03-24T16:37:08.713Z,57.50
2018-03-24T16:39:37.152Z,56.80
2018-03-24T16:42:05.433Z,59.60
2018-03-24T16:44:33.846Z,58.20
2018-03-24T16:47:01.395Z,58.10
2018-03-24T16:49:28.939Z,57.90
2018-03-24T16:51:56.448Z,58.50
2018-03-24T16:54:23.970Z,58.80
2018-03-24T16:56:52.444Z,57.60
2018-03-24T16:59:19.948Z,58.30
2018-03-24T17:01:48.369Z,59.00
2018-03-24T17:04:15.907Z,58.40
2018-03-24T17:06:43.451Z,58.00
2018-03-24T17:09:11.099Z,59.30
2018-03-24T17:11:39.440Z,59.00
2018-03-24T17:14:06.914Z,59.00
2018-03-24T17:16:53.196Z,58.80
2018-03-24T17:19:22.621Z,59.20
2018-03-24T17:21:51.159Z,59.50
2018-03-24T17:26:57.890Z,60.20
2018-03-24T17:29:27.369Z,61.50
2018-03-24T17:31:55.826Z,62.50
2018-03-24T17:34:24.181Z,63.10
2018-03-24T17:36:52.656Z,63.00
2018-03-24T17:39:20.194Z,63.00
2018-03-24T17:41:47.703Z,63.00
2018-03-24T17:44:15.201Z,63.30
2018-03-24T17:46:43.739Z,64.60
2018-03-24T17:49:11.281Z,64.50
2018-03-24T17:51:38.808Z,65.10
2018-03-24T17:54:07.415Z,66.00
2018-03-24T17:56:34.916Z,66.00
2018-03-24T17:59:03.382Z,66.10
2018-03-24T18:01:32.356Z,66.00
2018-03-24T18:03:59.888Z,65.90
2018-03-24T18:06:29.055Z,65.90
2018-03-24T18:08:56.586Z,66.70
2018-03-24T18:11:24.169Z,68.10
2018-03-24T18:13:51.679Z,67.80
2018-03-24T18:16:19.199Z,68.10
2018-03-24T18:18:46.724Z,69.30
2018-03-24T18:21:14.979Z,69.20
2018-03-24T18:23:43.427Z,69.20
2018-03-24T18:26:10.934Z,70.70
2018-03-24T18:28:39.374Z,72.10
2018-03-24T18:31:06.905Z,72.80
2018-03-24T18:33:34.475Z,74.30
2018-03-24T18:36:01.971Z,74.70
2018-03-24T18:38:29.458Z,75.80
2018-03-24T18:40:57.910Z,79.30
2018-03-24T18:43:25.453Z,80.50
2018-03-24T18:45:52.980Z,81.40
2018-03-24T18:48:21.415Z,81.90
2018-03-24T18:50:49.867Z,81.80
2018-03-24T18:53:18.192Z,81.80
2018-03-24T18:55:46.596Z,81.80
2018-03-24T18:58:14.163Z,81.80
2018-03-24T19:00:41.696Z,81.80
2018-03-24T19:03:10.166Z,81.70
2018-03-24T19:05:38.602Z,81.70
2018-03-24T19:08:06.119Z,80.80
2018-03-24T19:10:33.643Z,79.50
2018-03-24T19:13:01.187Z,79.30
2018-03-24T19:15:28.949Z,78.90
2018-03-24T19:17:57.391Z,79.00
2018-03-24T19:20:24.921Z,79.90
2018-03-24T19:22:52.417Z,79.00
2018-03-24T19:25:20.821Z,78.50
2018-03-24T19:27:48.306Z,78.50
2018-03-24T19:30:15.822Z,78.30
2018-03-24T19:32:44.129Z,77.30
2018-03-24T19:35:11.627Z,77.40
2018-03-24T19:37:39.303Z,77.60
2018-03-24T19:40:08.738Z,76.30
2018-03-24T19:42:37.060Z,75.10
2018-03-24T19:45:06.540Z,75.20
2018-03-24T19:47:34.116Z,74.10
2018-03-24T19:50:01.648Z,74.00
2018-03-24T19:52:30.000Z,73.00
2018-03-24T19:54:57.477Z,72.90
2018-03-24T19:57:24.975Z,72.70
2018-03-24T19:59:52.582Z,73.00
2018-03-24T20:02:20.130Z,73.40
2018-03-24T20:04:47.674Z,72.80
2018-03-24T20:07:16.126Z,72.70
2018-03-24T20:09:43.761Z,73.40
2018-03-24T20:12:11.267Z,73.80
2018-03-24T20:14:38.797Z,73.20
2018-03-24T20:17:07.257Z,73.50
2018-03-24T20:19:34.803Z,73.30
2018-03-24T20:22:02.304Z,72.90
2018-03-24T20:24:30.723Z,72.70
2018-03-24T20:26:58.308Z,73.10
2018-03-24T20:29:26.592Z,73.40
2018-03-24T20:31:54.137Z,73.40
2018-03-24T20:34:21.645Z,73.30
2018-03-24T20:36:49.189Z,73.50
2018-03-24T20:39:16.695Z,73.10
2018-03-24T20:41:44.196Z,73.00
2018-03-24T20:44:14.438Z,73.80
2018-03-24T20:46:42.012Z,73.80
2018-03-24T20:49:09.562Z,74.40
2018-03-24T20:51:37.912Z,76.30
2018-03-24T20:54:05.701Z,76.30
2018-03-24T20:56:33.217Z,74.80
2018-03-24T20:59:00.777Z,76.60
2018-03-24T21:01:30.291Z,78.40
2018-03-24T21:03:57.856Z,78.70
2018-03-24T21:06:25.605Z,78.50
2018-03-24T21:08:53.134Z,79.60
2018-03-24T21:11:20.764Z,82.50
2018-03-24T21:13:48.370Z,80.60
2018-03-24T21:16:16.656Z,80.80
2018-03-24T21:18:44.945Z,80.80
2018-03-24T21:21:13.357Z,80.80
2018-03-24T21:23:41.182Z,80.80
2018-03-24T21:26:08.738Z,80.80
2018-03-24T21:28:37.154Z,80.80
2018-03-24T21:31:04.702Z,80.80
2018-03-24T21:33:32.970Z,82.70
2018-03-24T21:36:00.565Z,82.70
2018-03-24T21:38:28.968Z,84.40
2018-03-24T21:40:56.484Z,82.60
2018-03-24T21:43:24.944Z,84.70
2018-03-24T21:45:53.441Z,83.50
2018-03-24T21:48:21.906Z,83.70
2018-03-24T21:50:50.381Z,83.90
2018-03-24T21:53:18.919Z,83.90
2018-03-24T21:55:47.367Z,84.30
2018-03-24T21:58:14.899Z,84.00
2018-03-24T22:00:42.441Z,83.00
2018-03-24T22:03:10.739Z,83.00
2018-03-24T22:05:57.126Z,83.10
2018-03-24T22:11:03.850Z,82.70
2018-03-24T22:13:31.678Z,83.00
2018-03-24T22:15:59.947Z,82.90
2018-03-24T22:18:27.473Z,83.90
2018-03-24T22:20:54.975Z,85.00
2018-03-24T22:23:22.605Z,84.80
2018-03-24T22:25:50.171Z,85.80
2018-03-24T22:28:17.725Z,86.00
2018-03-24T22:30:45.324Z,85.90
2018-03-24T22:33:12.874Z,86.40
2018-03-24T22:35:40.384Z,86.90
2018-03-24T22:38:08.648Z,89.10
2018-03-24T22:40:37.535Z,89.90
2018-03-24T22:43:05.973Z,89.30
2018-03-24T22:45:33.511Z,90.00
2018-03-24T22:48:01.945Z,90.30
2018-03-24T22:50:30.157Z,90.40
2018-03-24T22:52:58.579Z,91.00
2018-03-24T22:55:26.109Z,90.50
2018-03-24T22:57:56.343Z,90.60
2018-03-24T23:00:25.520Z,91.00
2018-03-24T23:02:53.021Z,91.00
2018-03-24T23:05:20.548Z,90.80
2018-03-24T23:07:48.119Z,90.50
2018-03-24T23:10:15.630Z,90.50
2018-03-24T23:12:43.286Z,90.60
2018-03-24T23:15:10.890Z,91.30
2018-03-24T23:17:38.403Z,90.90
2018-03-24T23:20:06.673Z,91.20
2018-03-24T23:22:34.959Z,90.80
2018-03-24T23:25:03.269Z,90.70
2018-03-24T23:27:31.934Z,90.70
2018-03-24T23:30:00.220Z,90.90
2018-03-24T23:32:28.608Z,90.60
2018-03-24T23:34:56.118Z,90.60
2018-03-24T23:37:23.640Z,91.00
2018-03-24T23:39:51.146Z,91.10
2018-03-24T23:42:19.623Z,91.20
2018-03-24T23:44:48.160Z,90.40
2018-03-24T23:47:16.461Z,91.20
2018-03-24T23:49:43.958Z,91.10
2018-03-24T23:52:11.500Z,90.80
2018-03-24T23:54:39.012Z,91.70
2018-03-24T23:57:07.564Z,91.10
2018-03-24T23:59:35.152Z,91.00
